Terminal Aerodrome Forecast
Issued by NWS Greer, SC

Home | Current Version | Previous Version | Text Only | Print | Product List | Glossary On
Versions: 1 2 3 4 5 6 7 8 9 10 11 12 13 14 15 16 17 18 19 20 21 22 23 24 25 26 27 28 29 30 31 32 33 34 35 36 37 38 39 40 41 42 43 44 45 46 47 48
000
FTUS42 KGSP 172000 AAA
TAFAVL
TAF AMD
KAVL 172048Z 1721/1818 15007KT P6SM SCT025 BKN040
      TEMPO 1721/1723 BKN025
     FM180400 35003KT 3SM BR BKN015
     FM180800 34004KT 2SM BR BKN008
     FM181000 34003KT 1SM BR BKN004
     FM181400 35005KT 6SM BR BKN020
     FM181600 36004KT P6SM BKN035=

USA.gov is the U.S. government's official web portal to all federal, state and local government web resources and services.